createdAt,value
2019-02-11T00:01:11.477Z,10.93
2019-02-11T00:03:39.981Z,11.90
2019-02-11T00:06:08.485Z,14.73
2019-02-11T00:08:37.192Z,13.33
2019-02-11T00:11:05.795Z,12.50
2019-02-11T00:13:34.339Z,11.73
2019-02-11T00:16:03.017Z,10.30
2019-02-11T00:18:31.652Z,11.17
2019-02-11T00:21:00.152Z,11.10
2019-02-11T00:23:29.077Z,11.73
2019-02-11T00:25:57.635Z,11.70
2019-02-11T00:28:26.563Z,12.33
2019-02-11T00:30:55.234Z,12.10
2019-02-11T00:33:23.730Z,11.33
2019-02-11T00:35:52.233Z,12.20
2019-02-11T00:38:20.761Z,10.13
2019-02-11T00:40:49.251Z,11.43
2019-02-11T00:43:19.446Z,11.60
2019-02-11T00:45:48.134Z,10.40
2019-02-11T00:48:16.643Z,11.27
2019-02-11T00:50:45.273Z,9.07
2019-02-11T00:53:13.870Z,8.23
2019-02-11T00:55:42.442Z,55.30
2019-02-11T00:58:11.098Z,9.17
2019-02-11T01:00:39.830Z,10.23
2019-02-11T01:03:08.395Z,9.70
2019-02-11T01:05:37.023Z,9.17
2019-02-11T01:08:05.629Z,9.37
2019-02-11T01:10:34.196Z,9.93
2019-02-11T01:13:02.702Z,10.30
2019-02-11T01:15:31.318Z,9.07
2019-02-11T01:17:59.883Z,9.33
2019-02-11T01:20:28.437Z,9.40
2019-02-11T01:22:57.032Z,9.37
2019-02-11T01:25:25.661Z,8.97
2019-02-11T01:27:54.300Z,9.53
2019-02-11T01:30:22.934Z,7.80
2019-02-11T01:32:51.503Z,8.20
2019-02-11T01:35:19.992Z,8.27
2019-02-11T01:37:48.979Z,31.80
2019-02-11T01:40:17.535Z,14.17
2019-02-11T01:42:46.089Z,9.97
2019-02-11T01:45:14.924Z,11.70
2019-02-11T01:47:43.605Z,11.13
2019-02-11T01:50:12.933Z,12.13
2019-02-11T01:52:41.557Z,11.03
2019-02-11T01:55:10.125Z,11.07
2019-02-11T01:57:38.697Z,10.70
2019-02-11T02:00:10.564Z,10.50
2019-02-11T02:02:39.195Z,8.43
2019-02-11T02:05:08.855Z,10.67
2019-02-11T02:07:37.388Z,11.20
2019-02-11T02:10:08.865Z,11.60
2019-02-11T02:12:37.429Z,10.00
2019-02-11T02:15:07.609Z,10.10
2019-02-11T02:17:36.104Z,9.47
2019-02-11T02:20:07.442Z,10.50
2019-02-11T02:22:36.063Z,9.80
2019-02-11T02:25:06.344Z,9.63
2019-02-11T02:27:34.980Z,9.67
2019-02-11T02:30:03.923Z,9.07
2019-02-11T02:32:32.410Z,8.90
2019-02-11T02:35:01.049Z,9.30
2019-02-11T02:37:29.642Z,8.77
2019-02-11T02:39:58.202Z,8.00
2019-02-11T02:42:26.832Z,7.93
2019-02-11T02:44:55.509Z,7.00
2019-02-11T02:47:24.137Z,6.73
2019-02-11T02:49:52.769Z,7.03
2019-02-11T02:52:21.295Z,6.23
2019-02-11T02:54:49.927Z,6.17
2019-02-11T02:57:18.610Z,5.83
2019-02-11T02:59:47.149Z,4.47
2019-02-11T03:02:15.818Z,5.47
2019-02-11T03:04:44.338Z,5.43
2019-02-11T03:07:12.937Z,5.27
2019-02-11T03:09:41.491Z,4.80
2019-02-11T03:12:09.996Z,5.57
2019-02-11T03:14:38.666Z,6.63
2019-02-11T03:17:07.286Z,4.93
2019-02-11T03:19:35.917Z,3.87
2019-02-11T03:22:04.547Z,10.60
2019-02-11T03:24:33.133Z,5.50
2019-02-11T03:27:01.699Z,4.77
2019-02-11T03:29:30.236Z,75.00
2019-02-11T03:31:59.980Z,4.97
2019-02-11T03:34:28.860Z,5.50
2019-02-11T03:36:57.520Z,5.47
2019-02-11T03:39:26.015Z,5.27
2019-02-11T03:41:54.656Z,5.03
2019-02-11T03:44:23.316Z,5.37
2019-02-11T03:46:51.871Z,4.93
2019-02-11T03:49:20.793Z,4.30
2019-02-11T03:51:49.332Z,8.50
2019-02-11T03:54:17.877Z,5.00
2019-02-11T03:56:46.454Z,5.00
2019-02-11T03:59:15.454Z,9.00
2019-02-11T04:01:44.091Z,10.43
2019-02-11T04:04:12.719Z,4.03
2019-02-11T04:06:41.322Z,4.60
2019-02-11T04:09:09.966Z,102.47
2019-02-11T04:11:38.606Z,3.80
2019-02-11T04:14:07.219Z,3.93
2019-02-11T04:16:35.839Z,4.67
2019-02-11T04:19:04.475Z,4.37
2019-02-11T04:21:33.142Z,4.73
2019-02-11T04:24:01.688Z,4.10
2019-02-11T04:26:31.838Z,4.90
2019-02-11T04:29:00.442Z,4.97
2019-02-11T04:31:29.070Z,3.67
2019-02-11T04:33:58.298Z,3.77
2019-02-11T04:36:27.037Z,3.03
2019-02-11T04:38:55.599Z,2.93
2019-02-11T04:41:24.147Z,3.30
2019-02-11T04:43:52.813Z,4.70
2019-02-11T04:46:21.768Z,3.03
2019-02-11T04:48:50.330Z,2.77
2019-02-11T04:51:18.995Z,2.37
2019-02-11T04:53:47.625Z,2.53
2019-02-11T04:56:16.175Z,2.30
2019-02-11T04:58:44.701Z,2.70
2019-02-11T05:01:13.333Z,1.80
2019-02-11T05:03:41.844Z,2.23
2019-02-11T05:06:10.488Z,2.90
2019-02-11T05:08:39.043Z,2.20
2019-02-11T05:11:07.531Z,2.43
2019-02-11T05:13:36.069Z,5.23
2019-02-11T05:16:04.633Z,2.20
2019-02-11T05:18:33.183Z,2.30
2019-02-11T05:21:01.791Z,2.57
2019-02-11T05:23:30.365Z,65.60
2019-02-11T05:25:58.917Z,2.00
2019-02-11T05:28:27.520Z,1.90
2019-02-11T05:30:56.082Z,2.20
2019-02-11T05:33:24.647Z,1.73
2019-02-11T05:35:53.189Z,3.37
2019-02-11T05:38:21.683Z,1.70
2019-02-11T05:40:50.248Z,11.43
2019-02-11T05:43:18.838Z,50.47
2019-02-11T05:45:47.401Z,3.13
2019-02-11T05:48:15.965Z,8.23
2019-02-11T05:50:44.570Z,33.27
2019-02-11T05:53:13.069Z,21.37
2019-02-11T05:55:41.953Z,3.07
2019-02-11T05:58:10.479Z,14.33
2019-02-11T06:00:39.048Z,4.17
2019-02-11T06:03:09.546Z,9.73
2019-02-11T06:05:37.807Z,4.57
2019-02-11T06:08:06.375Z,9.90
2019-02-11T06:10:35.002Z,43.80
2019-02-11T06:13:03.601Z,50.87
2019-02-11T06:15:32.167Z,67.17
2019-02-11T06:18:00.744Z,82.70
2019-02-11T06:20:29.273Z,90.13
2019-02-11T06:22:57.768Z,77.87
2019-02-11T06:25:26.358Z,76.13
2019-02-11T06:27:54.879Z,75.37
2019-02-11T06:30:23.464Z,81.47
2019-02-11T06:32:52.121Z,113.93
2019-02-11T06:35:20.846Z,84.33
2019-02-11T06:37:49.371Z,78.07
2019-02-11T06:40:17.938Z,85.83
2019-02-11T06:42:46.573Z,80.27
2019-02-11T06:45:15.087Z,95.70
2019-02-11T06:47:43.602Z,100.07
2019-02-11T06:50:16.151Z,70.37
2019-02-11T06:52:44.641Z,32.40
2019-02-11T06:55:13.219Z,87.43
2019-02-11T06:57:41.820Z,82.10
2019-02-11T07:00:16.607Z,35.77
2019-02-11T07:02:45.209Z,313.43
2019-02-11T07:05:13.896Z,79.73
2019-02-11T07:07:42.541Z,99.63
2019-02-11T07:10:11.600Z,4.43
2019-02-11T07:12:40.128Z,4.07
2019-02-11T07:15:11.503Z,5.23
2019-02-11T07:17:40.060Z,3.30
2019-02-11T07:20:10.165Z,4.30
2019-02-11T07:22:38.733Z,3.53
2019-02-11T07:25:08.494Z,4.50
2019-02-11T07:27:37.100Z,6.80
2019-02-11T07:30:08.815Z,5.03
2019-02-11T07:32:37.384Z,5.33
2019-02-11T07:35:06.000Z,4.93
2019-02-11T07:37:34.947Z,4.23
2019-02-11T07:40:04.706Z,4.33
2019-02-11T07:42:34.883Z,3.50
2019-02-11T07:45:04.724Z,4.67
2019-02-11T07:47:33.358Z,5.73
2019-02-11T07:50:02.026Z,5.83
2019-02-11T07:52:30.585Z,5.40
2019-02-11T07:54:59.212Z,15.57
2019-02-11T07:57:27.820Z,42.53
2019-02-11T07:59:57.346Z,44.30
2019-02-11T08:02:25.962Z,42.73
2019-02-11T08:04:54.575Z,31.67
2019-02-11T08:07:23.206Z,28.27
2019-02-11T08:09:51.771Z,64.63
2019-02-11T08:12:20.377Z,67.80
2019-02-11T08:14:49.017Z,46.87
2019-02-11T08:17:17.647Z,66.27
2019-02-11T08:19:46.250Z,79.77
2019-02-11T08:22:14.956Z,70.47
2019-02-11T08:24:43.516Z,83.10
2019-02-11T08:27:12.192Z,80.30
2019-02-11T08:29:40.766Z,83.13
2019-02-11T08:32:09.336Z,82.20
2019-02-11T08:34:38.027Z,86.80
2019-02-11T08:37:07.161Z,81.73
2019-02-11T08:39:35.785Z,82.33
2019-02-11T08:42:04.519Z,79.93
2019-02-11T08:44:33.674Z,83.33
2019-02-11T08:47:02.787Z,89.03
2019-02-11T08:49:31.390Z,82.57
2019-02-11T08:51:59.960Z,82.50
2019-02-11T08:54:28.530Z,85.30
2019-02-11T08:56:57.488Z,89.30
2019-02-11T08:59:26.111Z,91.37
2019-02-11T09:01:54.701Z,125.00
2019-02-11T09:04:23.388Z,110.90
2019-02-11T09:06:51.964Z,116.23
2019-02-11T09:09:20.588Z,171.53
2019-02-11T09:11:49.201Z,89.50
2019-02-11T09:14:17.818Z,79.43
2019-02-11T09:16:46.497Z,88.13
2019-02-11T09:19:15.166Z,10.30
2019-02-11T09:21:43.807Z,6.77
2019-02-11T09:24:12.325Z,6.03
2019-02-11T09:26:41.389Z,8.47
2019-02-11T09:29:09.959Z,6.80
2019-02-11T09:31:38.520Z,7.27
2019-02-11T09:34:07.191Z,7.63
2019-02-11T09:36:35.757Z,6.03
2019-02-11T09:39:05.488Z,7.00
2019-02-11T09:41:34.169Z,6.73
2019-02-11T09:44:03.149Z,6.93
2019-02-11T09:46:31.920Z,7.43
2019-02-11T09:49:00.688Z,7.87
2019-02-11T09:51:29.408Z,6.00
2019-02-11T09:53:58.202Z,7.27
2019-02-11T09:56:27.027Z,6.63
2019-02-11T09:58:55.687Z,6.77
2019-02-11T10:01:24.693Z,5.50
2019-02-11T10:03:53.386Z,6.67
2019-02-11T10:06:21.990Z,6.07
2019-02-11T10:08:50.479Z,6.03
2019-02-11T10:11:19.078Z,5.80
2019-02-11T10:13:47.645Z,6.40
2019-02-11T10:16:16.195Z,7.47
2019-02-11T10:18:44.807Z,7.80
2019-02-11T10:21:13.450Z,6.13
2019-02-11T10:23:41.941Z,6.43
2019-02-11T10:26:10.551Z,5.53
2019-02-11T10:28:39.536Z,6.37
2019-02-11T10:31:08.042Z,7.10
2019-02-11T10:33:36.639Z,6.53
2019-02-11T10:36:05.207Z,7.00
2019-02-11T10:38:36.431Z,7.40
2019-02-11T10:41:04.045Z,4.60
2019-02-11T10:43:32.549Z,4.63
2019-02-11T10:46:01.101Z,4.43
2019-02-11T10:48:29.889Z,5.33
2019-02-11T10:50:58.454Z,5.43
2019-02-11T10:53:27.007Z,4.23
2019-02-11T10:55:57.264Z,5.63
2019-02-11T10:58:25.756Z,4.13
2019-02-11T11:00:54.483Z,4.23
2019-02-11T11:03:23.156Z,4.23
2019-02-11T11:05:51.649Z,4.03
2019-02-11T11:08:20.199Z,4.43
2019-02-11T11:10:48.794Z,4.50
2019-02-11T11:13:17.286Z,4.70
2019-02-11T11:15:45.776Z,3.83
2019-02-11T11:18:14.385Z,4.57
2019-02-11T11:20:42.960Z,6.30
2019-02-11T11:23:11.460Z,3.93
2019-02-11T11:25:40.068Z,4.87
2019-02-11T11:28:08.627Z,5.23
2019-02-11T11:30:37.365Z,5.87
2019-02-11T11:33:06.053Z,5.80
2019-02-11T11:35:34.558Z,6.03
2019-02-11T11:38:03.116Z,5.43
2019-02-11T11:40:31.801Z,5.43
2019-02-11T11:43:00.437Z,4.90
2019-02-11T11:45:29.151Z,4.87
2019-02-11T11:47:57.697Z,5.73
2019-02-11T11:50:26.251Z,5.00
2019-02-11T11:52:54.823Z,5.30
2019-02-11T11:55:23.912Z,4.43
2019-02-11T11:57:52.820Z,3.90
2019-02-11T12:00:23.364Z,4.20
2019-02-11T12:03:01.959Z,4.33
2019-02-11T12:05:22.224Z,3.57
2019-02-11T12:07:50.793Z,3.73
2019-02-11T12:10:19.474Z,4.87
2019-02-11T12:12:48.055Z,4.97
2019-02-11T12:15:19.656Z,3.77
2019-02-11T12:17:48.351Z,4.27
2019-02-11T12:20:17.058Z,5.07
2019-02-11T12:22:45.637Z,3.20
2019-02-11T12:25:16.798Z,3.27
2019-02-11T12:27:45.358Z,4.03
2019-02-11T12:30:25.056Z,4.30
2019-02-11T12:32:55.415Z,3.63
2019-02-11T12:35:23.953Z,3.70
2019-02-11T12:37:52.562Z,3.50
2019-02-11T12:40:21.045Z,3.13
2019-02-11T12:42:52.853Z,6.17
2019-02-11T12:45:24.707Z,4.23
2019-02-11T12:47:53.307Z,4.37
2019-02-11T12:50:21.931Z,4.00
2019-02-11T12:52:50.602Z,4.43
2019-02-11T12:55:19.513Z,4.10
2019-02-11T12:57:48.065Z,4.40
2019-02-11T13:00:19.791Z,4.17
2019-02-11T13:02:48.491Z,4.40
2019-02-11T13:05:21.321Z,5.13
2019-02-11T13:07:47.571Z,3.70
2019-02-11T13:10:18.714Z,4.23
2019-02-11T13:12:47.254Z,3.60
2019-02-11T13:15:41.638Z,5.43
2019-02-11T13:17:47.116Z,5.33
2019-02-11T13:20:17.052Z,5.57
2019-02-11T13:22:45.668Z,4.73
2019-02-11T13:25:17.585Z,4.67
2019-02-11T13:27:46.573Z,4.20
2019-02-11T13:30:17.491Z,3.27
2019-02-11T13:32:47.086Z,3.43
2019-02-11T13:35:15.831Z,2.57
2019-02-11T13:37:44.649Z,5.03
2019-02-11T13:40:13.423Z,3.80
2019-02-11T13:42:42.003Z,4.73
2019-02-11T13:45:18.814Z,4.03
2019-02-11T13:47:57.967Z,5.17
2019-02-11T13:50:20.213Z,4.67
2019-02-11T13:52:48.979Z,5.10
2019-02-11T13:55:17.615Z,3.73
2019-02-11T13:57:46.187Z,4.03
2019-02-11T14:00:23.780Z,5.10
2019-02-11T14:02:57.255Z,7.17
2019-02-11T14:05:26.389Z,43.13
2019-02-11T14:07:54.936Z,60.47
2019-02-11T14:10:23.520Z,66.77
2019-02-11T14:12:52.088Z,55.10
2019-02-11T14:15:21.553Z,241.47
2019-02-11T14:17:50.384Z,350.57
2019-02-11T14:20:19.641Z,306.07
2019-02-11T14:22:47.977Z,455.07
2019-02-11T14:25:16.618Z,251.63
2019-02-11T14:27:45.118Z,81.40
2019-02-11T14:30:21.480Z,81.10
2019-02-11T14:32:50.061Z,81.43
2019-02-11T14:35:19.741Z,80.60
2019-02-11T14:37:48.334Z,75.17
2019-02-11T14:40:17.019Z,81.47
2019-02-11T14:42:45.631Z,79.37
2019-02-11T14:45:16.230Z,77.63
2019-02-11T14:47:44.984Z,54.20
2019-02-11T14:50:13.622Z,48.43
2019-02-11T14:52:42.185Z,45.70
2019-02-11T14:55:11.261Z,11.40
2019-02-11T14:57:39.870Z,59.40
2019-02-11T15:00:15.356Z,40.93
2019-02-11T15:02:43.969Z,69.60
2019-02-11T15:05:14.504Z,74.07
2019-02-11T15:07:42.896Z,81.53
2019-02-11T15:10:12.732Z,81.20
2019-02-11T15:12:41.267Z,81.77
2019-02-11T15:15:11.116Z,79.53
2019-02-11T15:17:41.197Z,83.33
2019-02-11T15:20:14.587Z,97.07
2019-02-11T15:22:43.235Z,79.90
2019-02-11T15:25:13.685Z,77.97
2019-02-11T15:27:42.376Z,79.17
2019-02-11T15:30:13.414Z,79.03
2019-02-11T15:32:41.942Z,81.03
2019-02-11T15:35:11.431Z,80.70
2019-02-11T15:37:40.120Z,78.07
2019-02-11T15:40:20.237Z,79.07
2019-02-11T15:42:48.804Z,89.77
2019-02-11T15:45:17.421Z,79.63
2019-02-11T15:47:46.037Z,79.00
2019-02-11T15:50:17.831Z,78.47
2019-02-11T15:52:46.466Z,78.80
2019-02-11T15:55:20.996Z,77.70
2019-02-11T15:57:49.563Z,80.83
2019-02-11T16:00:20.671Z,79.43
2019-02-11T16:02:51.439Z,80.10
2019-02-11T16:05:19.523Z,80.10
2019-02-11T16:07:48.706Z,82.00
2019-02-11T16:10:23.369Z,78.83
2019-02-11T16:12:52.066Z,79.33
2019-02-11T16:15:20.679Z,84.80
2019-02-11T16:17:49.375Z,83.23
2019-02-11T16:20:18.016Z,80.47
2019-02-11T16:22:46.662Z,79.17
2019-02-11T16:25:15.878Z,78.53
2019-02-11T16:27:44.512Z,86.40
2019-02-11T16:30:15.184Z,83.77
2019-02-11T16:32:43.908Z,82.67
2019-02-11T16:35:14.069Z,82.13
2019-02-11T16:37:43.130Z,62.87
2019-02-11T16:40:14.782Z,80.90
2019-02-11T16:42:43.432Z,56.63
2019-02-11T16:45:12.024Z,66.23
2019-02-11T16:47:40.725Z,81.57
2019-02-11T16:50:13.454Z,68.87
2019-02-11T16:52:42.086Z,56.67
2019-02-11T16:55:11.867Z,48.47
2019-02-11T16:57:40.538Z,27.27
2019-02-11T17:00:17.680Z,32.20
2019-02-11T17:02:46.272Z,20.90
2019-02-11T17:05:15.033Z,44.47
2019-02-11T17:07:43.724Z,14.40
2019-02-11T17:10:13.874Z,5.23
2019-02-11T17:12:42.523Z,4.67
2019-02-11T17:15:16.196Z,5.37
2019-02-11T17:17:44.839Z,25.43
2019-02-11T17:20:14.787Z,20.50
2019-02-11T17:22:43.580Z,6.93
2019-02-11T17:25:12.835Z,5.20
2019-02-11T17:27:41.520Z,5.47
2019-02-11T17:30:36.517Z,27.37
2019-02-11T17:33:05.164Z,4.90
2019-02-11T17:35:33.730Z,27.97
2019-02-11T17:38:02.396Z,39.10
2019-02-11T17:40:31.044Z,64.93
2019-02-11T17:42:59.680Z,61.73
2019-02-11T17:45:32.299Z,52.57
2019-02-11T17:48:00.946Z,65.10
2019-02-11T17:50:31.159Z,54.37
2019-02-11T17:53:02.983Z,42.43
2019-02-11T17:55:31.932Z,53.20
2019-02-11T17:58:00.493Z,53.70
2019-02-11T18:00:36.513Z,67.47
2019-02-11T18:03:05.015Z,61.30
2019-02-11T18:05:36.801Z,55.87
2019-02-11T18:08:05.491Z,68.17
2019-02-11T18:10:34.422Z,41.13
2019-02-11T18:13:03.057Z,69.90
2019-02-11T18:15:31.650Z,61.53
2019-02-11T18:18:00.302Z,59.27
2019-02-11T18:20:28.943Z,60.10
2019-02-11T18:22:57.666Z,56.70
2019-02-11T18:25:27.167Z,47.10
2019-02-11T18:27:55.838Z,37.57
2019-02-11T18:30:24.516Z,37.80
2019-02-11T18:32:53.167Z,75.80
2019-02-11T18:35:22.706Z,80.37
2019-02-11T18:37:51.346Z,79.07
2019-02-11T18:40:20.892Z,49.67
2019-02-11T18:42:49.530Z,69.70
2019-02-11T18:45:18.529Z,45.47
2019-02-11T18:47:47.186Z,74.60
2019-02-11T18:50:16.106Z,47.37
2019-02-11T18:52:44.810Z,72.70
2019-02-11T18:55:17.753Z,80.60
2019-02-11T18:57:46.331Z,79.07
2019-02-11T19:00:20.885Z,80.53
2019-02-11T19:02:49.606Z,79.30
2019-02-11T19:05:19.346Z,79.97
2019-02-11T19:07:48.814Z,139.57
2019-02-11T19:10:17.860Z,77.10
2019-02-11T19:12:46.709Z,81.47
2019-02-11T19:15:15.517Z,81.03
2019-02-11T19:17:45.955Z,77.90
2019-02-11T19:20:15.985Z,77.37
2019-02-11T19:22:44.284Z,78.40
2019-02-11T19:25:12.623Z,78.83
2019-02-11T19:27:40.878Z,156.87
2019-02-11T19:30:12.614Z,106.23
2019-02-11T19:32:41.259Z,84.60
2019-02-11T19:35:09.919Z,98.10
2019-02-11T19:37:38.601Z,84.60
2019-02-11T19:40:10.696Z,89.63
2019-02-11T19:42:38.958Z,124.90
2019-02-11T19:45:11.314Z,114.73
2019-02-11T19:47:39.991Z,92.83
2019-02-11T19:50:13.741Z,89.47
2019-02-11T19:52:42.433Z,80.77
2019-02-11T19:55:11.285Z,81.23
2019-02-11T19:57:39.857Z,84.83
2019-02-11T20:00:17.208Z,79.90
2019-02-11T20:02:47.145Z,93.77
2019-02-11T20:05:15.784Z,86.13
2019-02-11T20:07:44.201Z,90.90
2019-02-11T20:10:21.469Z,79.53
2019-02-11T20:12:50.155Z,83.30
2019-02-11T20:15:24.386Z,82.37
2019-02-11T20:17:53.450Z,82.83
2019-02-11T20:20:23.714Z,81.97
2019-02-11T20:22:51.962Z,129.60
2019-02-11T20:25:20.327Z,137.47
2019-02-11T20:27:49.001Z,194.03
2019-02-11T20:30:27.957Z,147.03
2019-02-11T20:32:56.339Z,95.13
2019-02-11T20:35:24.978Z,78.60
2019-02-11T20:37:53.347Z,100.27
2019-02-11T20:40:25.110Z,104.17
2019-02-11T20:42:59.499Z,89.97
2019-02-11T20:45:29.250Z,126.30
2019-02-11T20:47:57.799Z,108.43
2019-02-11T20:50:26.404Z,88.57
2019-02-11T20:52:55.465Z,144.87
2019-02-11T20:55:24.037Z,229.73
2019-02-11T20:57:58.185Z,98.47
2019-02-11T21:00:26.905Z,115.37
2019-02-11T21:02:55.555Z,80.07
2019-02-11T21:05:24.457Z,97.90
2019-02-11T21:07:53.125Z,110.70
2019-02-11T21:10:23.797Z,82.77
2019-02-11T21:12:52.187Z,76.60
2019-02-11T21:15:20.745Z,87.00
2019-02-11T21:17:49.077Z,80.00
2019-02-11T21:20:30.875Z,79.17
2019-02-11T21:22:59.223Z,86.87
2019-02-11T21:25:27.548Z,82.47
2019-02-11T21:27:56.256Z,80.17
2019-02-11T21:30:24.829Z,97.30
2019-02-11T21:32:53.409Z,80.00
2019-02-11T21:35:22.084Z,82.90
2019-02-11T21:37:50.671Z,78.93
2019-02-11T21:40:19.322Z,79.27
2019-02-11T21:42:47.631Z,81.77
2019-02-11T21:45:16.286Z,79.83
2019-02-11T21:47:44.922Z,76.83
2019-02-11T21:50:14.862Z,83.40
2019-02-11T21:52:43.209Z,87.63
2019-02-11T21:55:13.955Z,102.10
2019-02-11T21:57:42.572Z,82.77
2019-02-11T22:00:12.391Z,90.00
2019-02-11T22:02:41.042Z,81.33
2019-02-11T22:05:09.723Z,98.93
2019-02-11T22:07:38.230Z,100.33
2019-02-11T22:10:09.987Z,79.23
2019-02-11T22:12:39.091Z,76.67
2019-02-11T22:15:09.233Z,315.73
2019-02-11T22:17:39.279Z,85.20
2019-02-11T22:20:19.414Z,74.97
2019-02-11T22:22:48.047Z,74.60
2019-02-11T22:25:16.571Z,88.97
2019-02-11T22:27:44.870Z,77.80
2019-02-11T22:30:15.514Z,91.60
2019-02-11T22:32:44.155Z,78.73
2019-02-11T22:35:12.821Z,78.70
2019-02-11T22:37:41.262Z,84.33
2019-02-11T22:40:13.297Z,102.23
2019-02-11T22:42:41.660Z,90.70
2019-02-11T22:45:20.427Z,91.77
2019-02-11T22:47:49.039Z,91.20
2019-02-11T22:50:17.305Z,98.33
2019-02-11T22:52:45.870Z,77.03
2019-02-11T22:55:15.542Z,77.57
2019-02-11T22:57:44.123Z,79.70
2019-02-11T23:00:47.908Z,78.23
2019-02-11T23:03:16.487Z,79.03
2019-02-11T23:05:45.125Z,77.70
2019-02-11T23:08:13.729Z,77.63
2019-02-11T23:10:42.438Z,76.77
2019-02-11T23:13:11.079Z,78.13
2019-02-11T23:15:39.385Z,76.87
2019-02-11T23:18:08.079Z,76.27
2019-02-11T23:20:36.334Z,77.37
2019-02-11T23:23:04.886Z,79.73
2019-02-11T23:25:33.461Z,76.73
2019-02-11T23:28:01.954Z,76.37
2019-02-11T23:30:30.320Z,75.30
2019-02-11T23:32:58.905Z,77.17
2019-02-11T23:35:27.536Z,76.30
2019-02-11T23:37:56.077Z,76.83
2019-02-11T23:40:24.702Z,76.43
2019-02-11T23:42:53.273Z,85.73
2019-02-11T23:45:22.803Z,55.90
2019-02-11T23:47:51.367Z,71.10
2019-02-11T23:50:20.063Z,77.40
2019-02-11T23:52:48.614Z,78.23
2019-02-11T23:55:17.255Z,79.30
2019-02-11T23:57:45.887Z,78.80
